Time;durP1;ratioP1;P1;durP2;ratioP2;P2;SDS_P1;SDS_P2;PMS_P1;PMS_P2;Temp;Humidity;BMP_temperature;BMP_pressure;BME280_temperature;BME280_humidity;BME280_pressure;Samples;Min_cycle;Max_cycle;Signal;HPM_P1;HPM_P2
2022/11/27 00:02:11;;;;;;;10.80;4.83;;;;;;;5.84;100.00;102418.34;5308259;28;20388;-70
2022/11/27 00:04:42;;;;;;;18.80;5.87;;;;;;;5.82;100.00;102410.56;5297110;28;20032;-68
2022/11/27 00:07:13;;;;;;;14.43;4.87;;;;;;;5.86;100.00;102420.06;5296457;28;20032;-68
2022/11/27 00:09:45;;;;;;;12.90;5.07;;;;;;;5.85;100.00;102418.34;5296698;28;20032;-67
2022/11/27 00:12:16;;;;;;;14.83;5.27;;;;;;;5.78;100.00;102416.69;5295829;28;20028;-68
2022/11/27 00:14:48;;;;;;;16.30;5.60;;;;;;;5.74;100.00;102421.06;5293581;28;20049;-68
2022/11/27 00:17:19;;;;;;;13.80;5.23;;;;;;;5.77;100.00;102421.06;5287850;28;20032;-68
2022/11/27 00:19:50;;;;;;;13.47;4.90;;;;;;;5.76;100.00;102411.53;5296604;28;20105;-68
2022/11/27 00:22:22;;;;;;;13.27;5.77;;;;;;;5.75;100.00;102409.81;5296105;28;20028;-68
2022/11/27 00:24:53;;;;;;;18.93;5.30;;;;;;;5.73;100.00;102413.31;5296493;28;20012;-67
2022/11/27 00:27:25;;;;;;;12.37;4.80;;;;;;;5.70;100.00;102396.03;5295133;28;20070;-67
2022/11/27 00:29:56;;;;;;;14.60;4.80;;;;;;;5.65;100.00;102398.69;5289138;28;20028;-68
2022/11/27 00:32:27;;;;;;;12.63;4.73;;;;;;;5.61;100.00;102386.59;5295698;28;20032;-69
2022/11/27 00:34:58;;;;;;;16.63;5.33;;;;;;;5.58;100.00;102389.25;5296270;28;20084;-68
2022/11/27 00:37:30;;;;;;;18.27;5.93;;;;;;;5.55;100.00;102389.31;5296454;28;20466;-68
2022/11/27 00:40:01;;;;;;;14.80;5.70;;;;;;;5.53;100.00;102372.88;5295944;28;20059;-68
2022/11/27 00:42:32;;;;;;;17.77;5.20;;;;;;;5.49;100.00;102377.25;5291633;28;20399;-68
2022/11/27 00:45:04;;;;;;;22.03;5.57;;;;;;;5.50;100.00;102383.31;5295799;28;20078;-69
2022/11/27 00:47:35;;;;;;;13.83;5.57;;;;;;;5.54;100.00;102380.63;5295782;28;20024;-68
2022/11/27 00:50:07;;;;;;;14.20;5.43;;;;;;;5.46;100.00;102379.88;5295291;28;20047;-69
2022/11/27 00:52:38;;;;;;;17.80;5.57;;;;;;;5.47;100.00;102384.19;5291443;28;20107;-68
2022/11/27 00:55:11;;;;;;;20.70;5.30;;;;;;;5.45;100.00;102373.81;5294496;28;20024;-69
2022/11/27 00:57:42;;;;;;;16.50;4.93;;;;;;;5.45;100.00;102367.75;5293679;28;20024;-69
2022/11/27 01:00:15;;;;;;;19.47;5.73;;;;;;;5.49;100.00;102360.78;5295627;28;20383;-68
2022/11/27 01:02:46;;;;;;;17.10;4.90;;;;;;;5.32;100.00;102352.31;5278748;28;20603;-68
2022/11/27 01:05:17;;;;;;;13.87;5.27;;;;;;;5.39;100.00;102354.88;5295570;28;20024;-68
2022/11/27 01:07:48;;;;;;;16.97;5.00;;;;;;;5.37;100.00;102351.41;5295300;28;20017;-68
2022/11/27 01:10:20;;;;;;;16.90;5.60;;;;;;;5.26;100.00;102347.22;5294707;28;20062;-68
2022/11/27 01:12:51;;;;;;;12.97;5.33;;;;;;;5.23;100.00;102341.22;5294788;28;20470;-68
2022/11/27 01:15:22;;;;;;;16.50;4.53;;;;;;;5.23;100.00;102331.69;5294776;28;20119;-68
2022/11/27 01:17:54;;;;;;;17.50;5.27;;;;;;;5.22;100.00;102339.50;5295583;28;20028;-68
2022/11/27 01:20:25;;;;;;;15.60;5.23;;;;;;;5.31;100.00;102328.97;5295471;28;20028;-68
2022/11/27 01:22:56;;;;;;;19.60;7.10;;;;;;;5.32;100.00;102326.34;5294818;28;20027;-69
2022/11/27 01:25:27;;;;;;;14.83;5.47;;;;;;;5.03;100.00;102324.13;5295380;28;20039;-68
2022/11/27 01:27:59;;;;;;;17.23;6.27;;;;;;;5.20;100.00;102353.34;5294224;28;20102;-68
2022/11/27 01:30:30;;;;;;;16.50;4.73;;;;;;;5.24;100.00;102343.78;5294741;28;20027;-68
2022/11/27 01:33:01;;;;;;;16.23;6.20;;;;;;;5.16;100.00;102324.84;5295177;28;20038;-68
2022/11/27 01:35:33;;;;;;;19.37;6.27;;;;;;;5.13;100.00;102335.28;5295579;28;20031;-68
2022/11/27 01:38:04;;;;;;;18.80;6.40;;;;;;;5.14;100.00;102319.69;5294376;28;20028;-69
2022/11/27 01:40:35;;;;;;;19.43;6.70;;;;;;;5.15;100.00;102317.94;5291614;28;20493;-68
2022/11/27 01:43:13;;;;;;;15.33;6.33;;;;;;;5.00;100.00;102299.06;5294278;28;20024;-68
2022/11/27 01:45:44;;;;;;;20.50;6.30;;;;;;;5.03;100.00;102304.22;5295339;28;20077;-68
2022/11/27 01:48:16;;;;;;;16.73;5.43;;;;;;;5.02;100.00;102299.91;5294788;28;20039;-67
2022/11/27 01:50:47;;;;;;;21.17;7.10;;;;;;;5.17;100.00;102305.78;5297906;28;20024;-68
2022/11/27 01:53:18;;;;;;;15.60;6.03;;;;;;;5.09;100.00;102305.88;5299422;28;20507;-68
2022/11/27 01:55:54;;;;;;;22.73;6.77;;;;;;;5.15;100.00;102302.38;5298727;28;20364;-68
2022/11/27 01:58:29;;;;;;;18.50;7.30;;;;;;;5.12;100.00;102282.47;5298673;28;20046;-68
2022/11/27 02:01:00;;;;;;;17.02;5.90;;;;;;;5.15;100.00;102269.44;5299311;28;20024;-68
2022/11/27 02:03:32;;;;;;;14.73;6.23;;;;;;;5.09;100.00;102261.75;5298636;28;20113;-68
2022/11/27 02:06:03;;;;;;;22.17;7.37;;;;;;;4.92;100.00;102247.22;5297263;28;20019;-68
2022/11/27 02:08:35;;;;;;;20.93;6.80;;;;;;;5.02;100.00;102249.72;5332551;22;20350;-68
2022/11/27 02:11:26;;;;;;;16.70;6.60;;;;;;;5.11;100.00;102248.72;5287480;28;20028;-69
2022/11/27 02:14:20;;;;;;;16.80;6.07;;;;;;;5.07;100.00;102250.50;5296581;28;20027;-69
2022/11/27 02:17:09;;;;;;;19.13;6.40;;;;;;;5.05;100.00;102250.53;5275170;28;20024;-68
2022/11/27 02:20:00;;;;;;;20.57;6.30;;;;;;;5.03;100.00;102241.03;5284590;28;20093;-68
2022/11/27 02:22:56;;;;;;;15.27;5.93;;;;;;;4.97;100.00;102242.00;5295605;28;20379;-68
2022/11/27 02:25:39;;;;;;;19.70;7.00;;;;;;;4.91;100.00;102229.06;5293924;28;20076;-69
2022/11/27 02:28:41;;;;;;;15.03;5.80;;;;;;;4.87;100.00;102224.81;5287453;28;20032;-68
2022/11/27 02:31:26;;;;;;;18.73;6.73;;;;;;;4.84;100.00;102225.72;5281825;28;20038;-68
2022/11/27 02:34:07;;;;;;;20.38;6.03;;;;;;;4.85;100.00;102222.25;5285171;28;20035;-68
2022/11/27 02:36:47;;;;;;;22.33;7.57;;;;;;;4.92;100.00;102228.22;5278378;28;20032;-68
2022/11/27 02:39:29;;;;;;;20.70;7.13;;;;;;;4.84;100.00;102216.19;5277477;28;20219;-68
2022/11/27 02:42:08;;;;;;;13.13;5.97;;;;;;;4.88;100.00;102217.00;5281692;28;20024;-69
2022/11/27 02:44:45;;;;;;;14.40;6.27;;;;;;;4.84;100.00;102212.72;5284567;28;20051;-70
2022/11/27 02:47:17;;;;;;;17.43;6.70;;;;;;;4.75;100.00;102203.31;5284156;28;20028;-68
2022/11/27 02:49:51;;;;;;;19.40;7.17;;;;;;;4.74;100.00;102209.41;5276618;28;20016;-68
2022/11/27 02:52:26;;;;;;;14.98;7.25;;;;;;;4.80;100.00;102211.06;5296442;28;20051;-68
2022/11/27 02:55:02;;;;;;;17.40;5.90;;;;;;;4.82;100.00;102217.94;5295696;28;20031;-68
2022/11/27 02:57:37;;;;;;;13.50;5.83;;;;;;;4.89;100.00;102223.03;5295019;28;20382;-69
2022/11/27 03:00:09;;;;;;;18.88;7.15;;;;;;;4.82;100.00;102228.34;5281718;28;20053;-68
2022/11/27 03:02:48;;;;;;;12.27;6.00;;;;;;;4.88;100.00;102231.72;5287851;28;20040;-71
2022/11/27 03:05:22;;;;;;;14.73;6.97;;;;;;;4.79;100.00;102228.38;5281202;28;20057;-69
2022/11/27 03:08:00;;;;;;;21.02;7.30;;;;;;;4.86;100.00;102233.47;5289499;28;20048;-69
2022/11/27 03:10:38;;;;;;;17.63;5.87;;;;;;;4.84;100.00;102231.78;5279664;28;20436;-69
2022/11/27 03:13:10;;;;;;;15.20;6.17;;;;;;;4.84;100.00;102229.19;5291759;28;20099;-69
2022/11/27 03:16:03;;;;;;;11.57;4.67;;;;;;;4.82;100.00;102233.53;5298086;28;20031;-69
2022/11/27 03:19:00;;;;;;;19.10;6.57;;;;;;;4.89;100.00;102215.25;5293284;28;20401;-69
2022/11/27 03:21:49;;;;;;;13.60;5.73;;;;;;;4.96;100.00;102214.28;5297541;28;20454;-69
2022/11/27 03:24:20;;;;;;;12.70;5.37;;;;;;;4.83;100.00;102200.66;5284386;28;20096;-69
2022/11/27 03:26:53;;;;;;;14.63;5.47;;;;;;;4.84;100.00;102199.75;5296284;28;20032;-68
2022/11/27 03:29:30;;;;;;;15.67;5.13;;;;;;;4.90;100.00;102214.41;5296047;28;20063;-69
2022/11/27 03:32:03;;;;;;;22.13;5.73;;;;;;;4.82;100.00;102207.56;5297807;28;20032;-69
2022/11/27 03:34:35;;;;;;;16.83;5.23;;;;;;;4.84;100.00;102200.63;5295508;28;20450;-69
2022/11/27 03:37:06;;;;;;;16.93;5.13;;;;;;;4.88;100.00;102200.56;5289450;28;20062;-69
2022/11/27 03:39:38;;;;;;;13.63;5.20;;;;;;;4.83;100.00;102193.69;5281582;28;20040;-69
2022/11/27 03:42:37;;;;;;;14.87;4.60;;;;;;;4.97;100.00;102200.44;5288102;28;20089;-68
2022/11/27 03:45:23;;;;;;;17.07;4.97;;;;;;;4.96;100.00;102198.72;5282522;28;20028;-69
2022/11/27 03:48:08;;;;;;;12.70;5.10;;;;;;;4.86;100.00;102169.44;5285068;28;20032;-68
2022/11/27 03:50:40;;;;;;;12.03;4.70;;;;;;;4.86;100.00;102181.56;5295992;28;20111;-69
2022/11/27 03:53:36;;;;;;;12.17;4.60;;;;;;;4.92;100.00;102173.69;5297230;28;20161;-69
2022/11/27 03:56:07;;;;;;;11.87;4.13;;;;;;;4.88;100.00;102179.81;5284971;28;20032;-69
2022/11/27 03:58:57;;;;;;;11.40;4.57;;;;;;;4.86;100.00;102177.22;5289182;28;20085;-69
2022/11/27 04:01:29;;;;;;;11.60;5.53;;;;;;;4.92;100.00;102166.75;5295846;28;20044;-68
2022/11/27 04:04:01;;;;;;;10.30;4.13;;;;;;;4.89;100.00;102182.38;5297629;28;20462;-68
2022/11/27 04:06:32;;;;;;;11.00;4.60;;;;;;;4.93;100.00;102183.19;5291095;28;20071;-69
2022/11/27 04:09:04;;;;;;;12.43;4.83;;;;;;;4.96;100.00;102183.13;5276732;28;20101;-69
2022/11/27 04:11:35;;;;;;;12.47;4.97;;;;;;;4.97;100.00;102190.91;5293611;28;20531;-70
2022/11/27 04:14:07;;;;;;;9.93;4.63;;;;;;;5.01;100.00;102196.91;5296171;28;20013;-69
2022/11/27 04:16:39;;;;;;;10.37;4.30;;;;;;;4.99;100.00;102196.09;5296925;28;20055;-69
2022/11/27 04:19:10;;;;;;;8.57;3.63;;;;;;;5.02;100.00;102203.84;5296141;28;20032;-69
2022/11/27 04:21:41;;;;;;;12.53;3.90;;;;;;;5.02;100.00;102209.03;5296087;28;20039;-69
2022/11/27 04:24:12;;;;;;;13.30;4.67;;;;;;;5.02;100.00;102202.97;5294984;28;20019;-69
2022/11/27 04:26:44;;;;;;;11.87;4.13;;;;;;;4.96;100.00;102202.19;5288138;28;20028;-69
2022/11/27 04:29:15;;;;;;;10.53;4.50;;;;;;;5.04;100.00;102196.91;5295958;28;20031;-69
2022/11/27 04:31:46;;;;;;;9.50;3.67;;;;;;;5.03;100.00;102187.38;5294863;28;20081;-69
2022/11/27 04:34:18;;;;;;;13.07;3.73;;;;;;;5.00;100.00;102186.56;5282248;28;20042;-69
2022/11/27 04:36:49;;;;;;;11.10;4.73;;;;;;;4.95;100.00;102187.50;5296409;28;20093;-69
2022/11/27 04:39:20;;;;;;;9.87;4.13;;;;;;;5.05;100.00;102174.34;5280628;28;20641;-69
2022/11/27 04:41:51;;;;;;;8.37;3.47;;;;;;;5.00;100.00;102192.63;5286536;28;20062;-69
2022/11/27 04:44:23;;;;;;;10.10;4.33;;;;;;;4.94;100.00;102184.94;5295571;28;20474;-69
2022/11/27 04:46:54;;;;;;;12.10;4.43;;;;;;;5.04;100.00;102183.03;5296477;28;20059;-68
2022/11/27 04:49:25;;;;;;;12.63;4.77;;;;;;;4.88;100.00;102190.19;5295757;28;20109;-69
2022/11/27 04:51:57;;;;;;;10.83;5.03;;;;;;;4.95;100.00;102165.84;5295797;28;20115;-69
2022/11/27 04:54:28;;;;;;;15.37;5.13;;;;;;;4.99;100.00;102172.72;5296079;28;20027;-69
2022/11/27 04:56:59;;;;;;;19.97;5.17;;;;;;;4.97;100.00;102153.72;5295402;28;20025;-69
2022/11/27 04:59:30;;;;;;;11.93;4.07;;;;;;;4.92;100.00;102150.34;5294796;28;20077;-69
2022/11/27 05:02:02;;;;;;;10.33;5.07;;;;;;;4.94;100.00;102154.59;5285696;28;20032;-69
2022/11/27 05:04:33;;;;;;;13.20;5.07;;;;;;;5.00;100.00;102158.00;5295802;28;20109;-69
2022/11/27 05:07:04;;;;;;;10.03;4.20;;;;;;;4.95;100.00;102155.47;5294293;28;20712;-70
2022/11/27 05:09:36;;;;;;;14.53;4.40;;;;;;;4.93;100.00;102137.31;5294822;28;20023;-70
2022/11/27 05:12:07;;;;;;;9.77;4.33;;;;;;;4.88;100.00;102133.94;5291262;28;20036;-69
2022/11/27 05:14:38;;;;;;;8.97;3.80;;;;;;;4.95;100.00;102137.28;5295866;28;20374;-69
2022/11/27 05:17:09;;;;;;;9.13;3.90;;;;;;;5.01;100.00;102134.59;5295822;28;20488;-69
2022/11/27 05:19:41;;;;;;;11.37;3.83;;;;;;;4.97;100.00;102133.78;5294602;28;20024;-69
2022/11/27 05:22:12;;;;;;;13.40;4.00;;;;;;;5.03;100.00;102126.78;5294906;28;20028;-69
2022/11/27 05:24:44;;;;;;;8.57;3.97;;;;;;;4.94;100.00;102128.63;5295439;28;20089;-69
2022/11/27 05:27:15;;;;;;;7.90;3.97;;;;;;;4.90;100.00;102127.00;5293481;28;20016;-69
2022/11/27 05:29:46;;;;;;;11.80;3.90;;;;;;;4.99;100.00;102126.00;5295567;28;20032;-69
2022/11/27 05:32:17;;;;;;;11.13;3.33;;;;;;;4.94;100.00;102120.00;5295071;28;20056;-69
2022/11/27 05:34:49;;;;;;;11.73;4.20;;;;;;;5.01;100.00;102121.59;5295507;28;20032;-68
2022/11/27 05:37:20;;;;;;;11.63;3.90;;;;;;;4.98;100.00;102113.88;5294850;28;20060;-69
2022/11/27 05:39:51;;;;;;;13.30;3.77;;;;;;;5.03;100.00;102112.06;5295429;28;20672;-68
2022/11/27 05:42:23;;;;;;;9.87;3.53;;;;;;;5.05;100.00;102119.81;5293690;28;20028;-68
2022/11/27 05:44:54;;;;;;;10.07;4.20;;;;;;;5.03;100.00;102112.06;5294970;28;20521;-69
2022/11/27 05:47:25;;;;;;;13.17;4.37;;;;;;;4.99;100.00;102107.81;5294598;28;20466;-69
2022/11/27 05:49:57;;;;;;;9.13;3.80;;;;;;;5.07;100.00;102102.47;5294881;28;20634;-68
2022/11/27 05:52:28;;;;;;;7.10;3.50;;;;;;;5.09;100.00;102095.53;5294918;28;20089;-69
2022/11/27 05:54:59;;;;;;;10.60;3.80;;;;;;;5.09;100.00;102090.34;5295774;28;20044;-68
2022/11/27 05:57:31;;;;;;;10.50;4.37;;;;;;;5.10;100.00;102083.41;5291305;28;20028;-69
2022/11/27 06:00:04;;;;;;;9.43;3.90;;;;;;;5.08;100.00;102081.69;5292573;28;20075;-69
2022/11/27 06:02:35;;;;;;;10.00;3.43;;;;;;;5.06;100.00;102085.19;5293312;28;20028;-69
2022/11/27 06:05:07;;;;;;;9.63;3.53;;;;;;;5.07;100.00;102087.78;5291937;28;20375;-69
2022/11/27 06:07:38;;;;;;;11.60;4.03;;;;;;;5.08;100.00;102084.28;5290864;28;20048;-69
2022/11/27 06:10:10;;;;;;;8.07;3.60;;;;;;;5.04;100.00;102084.38;5287469;28;20039;-69
2022/11/27 06:12:41;;;;;;;10.03;3.30;;;;;;;5.08;100.00;102089.47;5295202;28;20084;-69
2022/11/27 06:15:12;;;;;;;9.40;3.43;;;;;;;5.08;100.00;102073.88;5290041;28;20070;-69
2022/11/27 06:17:43;;;;;;;10.27;3.90;;;;;;;5.15;100.00;102079.84;5287801;28;20024;-69
2022/11/27 06:20:15;;;;;;;8.37;4.33;;;;;;;5.10;100.00;102075.63;5292597;28;20066;-69
2022/11/27 06:22:47;;;;;;;11.77;4.03;;;;;;;5.15;100.00;102076.41;5295156;28;20474;-69
2022/11/27 06:25:18;;;;;;;10.73;3.50;;;;;;;5.16;100.00;102070.31;5293383;28;20039;-69
2022/11/27 06:27:50;;;;;;;11.03;3.17;;;;;;;5.14;100.00;102077.28;5292929;28;20051;-69
2022/11/27 06:30:21;;;;;;;7.87;4.00;;;;;;;5.09;100.00;102069.56;5293614;28;20027;-69
2022/11/27 06:32:52;;;;;;;9.87;3.30;;;;;;;5.14;100.00;102072.94;5294716;28;20036;-69
2022/11/27 06:35:24;;;;;;;8.83;3.10;;;;;;;5.12;100.00;102073.84;5294876;28;20042;-69
2022/11/27 06:37:55;;;;;;;9.40;5.33;;;;;;;5.16;100.00;102070.31;5296730;28;20058;-69
2022/11/27 06:40:26;;;;;;;13.90;3.57;;;;;;;5.17;100.00;102072.00;5289738;28;20035;-68
2022/11/27 06:42:57;;;;;;;13.30;4.47;;;;;;;5.17;100.00;102072.88;5297692;28;20030;-69
2022/11/27 06:45:29;;;;;;;7.33;3.30;;;;;;;5.13;100.00;102072.97;5297585;28;20067;-68
2022/11/27 06:48:00;;;;;;;10.13;4.00;;;;;;;5.18;100.00;102073.75;5295244;28;20351;-68
2022/11/27 06:50:31;;;;;;;9.03;3.60;;;;;;;5.06;100.00;102059.22;5295029;28;20588;-68
2022/11/27 06:53:02;;;;;;;10.07;3.37;;;;;;;5.14;100.00;102066.88;5298695;28;20035;-68
2022/11/27 06:55:36;;;;;;;9.77;5.00;;;;;;;5.13;100.00;102060.81;5287079;28;20081;-68
2022/11/27 06:58:08;;;;;;;10.75;3.63;;;;;;;5.19;100.00;102057.28;5297807;28;20119;-68
2022/11/27 07:00:39;;;;;;;5.43;2.73;;;;;;;5.18;100.00;102065.97;5298557;28;20103;-68
2022/11/27 07:03:10;;;;;;;10.70;3.40;;;;;;;5.10;100.00;102055.69;5297910;28;20020;-68
2022/11/27 07:05:41;;;;;;;9.73;3.83;;;;;;;5.16;100.00;102057.31;5296312;28;20429;-69
2022/11/27 07:08:13;;;;;;;7.90;3.70;;;;;;;5.01;100.00;102043.72;5288716;28;20390;-69
2022/11/27 07:10:44;;;;;;;10.87;4.33;;;;;;;5.10;100.00;102040.09;5294262;28;20392;-69
2022/11/27 07:13:15;;;;;;;10.23;3.63;;;;;;;5.17;100.00;102040.84;5297684;28;20336;-69
2022/11/27 07:15:47;;;;;;;8.47;3.30;;;;;;;5.02;100.00;102034.19;5297975;28;20115;-69
2022/11/27 07:18:18;;;;;;;11.93;4.17;;;;;;;4.90;100.00;102012.75;5296681;28;20032;-68
2022/11/27 07:20:51;;;;;;;9.97;4.83;;;;;;;4.88;100.00;102016.25;5282286;28;20020;-68
2022/11/27 07:23:22;;;;;;;8.50;3.20;;;;;;;4.76;100.00;102018.19;5297733;28;20035;-68
2022/11/27 07:25:53;;;;;;;7.63;3.50;;;;;;;4.85;100.00;102014.56;5297047;28;20800;-68
2022/11/27 07:28:25;;;;;;;16.37;3.83;;;;;;;4.90;100.00;102007.56;5295974;28;20161;-68
2022/11/27 07:30:57;;;;;;;7.93;4.20;;;;;;;4.94;100.00;102005.78;5282796;28;20024;-68
2022/11/27 07:33:29;;;;;;;10.63;4.00;;;;;;;4.95;100.00;102012.66;5297518;28;20036;-68
2022/11/27 07:36:25;;;;;;;8.57;3.60;;;;;;;4.77;100.00;101985.28;5297532;28;20722;-69
2022/11/27 07:38:57;;;;;;;13.20;4.93;;;;;;;4.92;100.00;101999.75;5293572;28;20043;-69
2022/11/27 07:41:28;;;;;;;10.97;4.20;;;;;;;4.86;100.00;102010.22;5295966;28;20021;-69
2022/11/27 07:43:59;;;;;;;10.50;3.93;;;;;;;4.91;100.00;102011.00;5297151;28;20024;-69
2022/11/27 07:46:31;;;;;;;11.03;4.10;;;;;;;4.98;100.00;101999.63;5295485;28;20092;-69
2022/11/27 07:49:02;;;;;;;13.70;5.03;;;;;;;4.86;100.00;102002.44;5296260;28;20032;-69
2022/11/27 07:51:33;;;;;;;11.23;5.13;;;;;;;4.82;100.00;101992.09;5297248;28;20096;-69
2022/11/27 07:54:05;;;;;;;16.07;5.27;;;;;;;4.74;100.00;101975.81;5296506;28;20024;-70
2022/11/27 07:56:36;;;;;;;13.20;5.40;;;;;;;4.73;100.00;101974.09;5295933;28;20028;-69
2022/11/27 07:59:07;;;;;;;13.70;4.60;;;;;;;4.67;100.00;101969.88;5296993;28;20108;-69
2022/11/27 08:01:39;;;;;;;9.87;4.73;;;;;;;4.68;100.00;101965.53;5296512;28;20044;-69
2022/11/27 08:04:10;;;;;;;13.87;5.70;;;;;;;4.72;100.00;101959.41;5297263;28;20026;-69
2022/11/27 08:06:41;;;;;;;13.43;5.73;;;;;;;4.70;100.00;101954.25;5295365;28;20058;-69
2022/11/27 08:09:12;;;;;;;13.70;7.37;;;;;;;4.76;100.00;101963.66;5295974;28;20504;-69
2022/11/27 08:11:44;;;;;;;15.07;6.80;;;;;;;4.76;100.00;101950.69;5288530;28;20033;-69
2022/11/27 08:14:16;;;;;;;16.40;6.40;;;;;;;4.81;100.00;101948.00;5293165;28;20038;-69
2022/11/27 08:16:47;;;;;;;14.47;6.20;;;;;;;4.84;100.00;101958.34;5295995;28;20061;-69
2022/11/27 08:19:19;;;;;;;11.30;6.60;;;;;;;4.93;100.00;101957.31;5292911;28;20135;-69
2022/11/27 08:21:50;;;;;;;13.77;5.20;;;;;;;5.04;100.00;101952.81;5290560;28;20036;-69
2022/11/27 08:24:21;;;;;;;14.90;5.40;;;;;;;5.03;100.00;101950.19;5292653;28;20036;-69
2022/11/27 08:26:53;;;;;;;7.70;5.23;;;;;;;5.04;100.00;101936.34;5289060;28;20679;-69
2022/11/27 08:29:25;;;;;;;12.37;5.30;;;;;;;5.20;100.00;101957.69;5294547;28;20043;-69
2022/11/27 08:31:56;;;;;;;9.53;5.30;;;;;;;5.17;100.00;101952.53;5295831;28;20031;-69
2022/11/27 08:34:27;;;;;;;13.83;5.80;;;;;;;5.24;100.00;101955.88;5295805;28;20020;-69
2022/11/27 08:36:59;;;;;;;13.87;5.40;;;;;;;5.25;100.00;101957.59;5282555;28;20070;-69
2022/11/27 08:39:30;;;;;;;12.27;5.77;;;;;;;5.33;100.00;101958.31;5295086;28;20035;-69
2022/11/27 08:42:01;;;;;;;14.73;6.70;;;;;;;5.25;100.00;101958.47;5295176;28;20098;-69
2022/11/27 08:44:32;;;;;;;12.00;6.20;;;;;;;5.27;100.00;101948.88;5288794;28;20107;-68
2022/11/27 08:47:04;;;;;;;14.70;6.30;;;;;;;5.28;100.00;101955.81;5287705;28;20032;-69
2022/11/27 08:49:35;;;;;;;8.73;6.27;;;;;;;5.32;100.00;101957.44;5295387;28;20047;-69
2022/11/27 08:52:07;;;;;;;12.13;5.73;;;;;;;5.44;100.00;101963.28;5295996;28;20024;-69
2022/11/27 08:54:38;;;;;;;10.43;6.40;;;;;;;5.36;100.00;101963.44;5292703;28;20028;-70
2022/11/27 08:57:09;;;;;;;12.53;6.73;;;;;;;5.33;100.00;101959.16;5284901;28;20035;-68
2022/11/27 08:59:40;;;;;;;11.30;6.57;;;;;;;5.43;100.00;101961.56;5293529;28;20038;-69
2022/11/27 09:02:12;;;;;;;14.03;6.90;;;;;;;5.45;100.00;101972.78;5295361;28;20032;-69
2022/11/27 09:04:43;;;;;;;15.30;6.90;;;;;;;5.46;100.00;101964.13;5295537;28;20039;-69
2022/11/27 09:07:15;;;;;;;13.13;6.93;;;;;;;5.38;100.00;101956.47;5295370;28;20090;-69
2022/11/27 09:09:46;;;;;;;13.80;6.97;;;;;;;5.45;100.00;101963.25;5289253;28;20032;-69
2022/11/27 09:12:18;;;;;;;13.43;7.20;;;;;;;5.49;100.00;101955.41;5294286;28;20076;-69
2022/11/27 09:14:49;;;;;;;14.73;6.73;;;;;;;5.53;100.00;101951.84;5295281;28;20767;-69
2022/11/27 09:17:20;;;;;;;13.83;6.00;;;;;;;5.56;100.00;101964.78;5279682;28;20031;-69
2022/11/27 09:19:52;;;;;;;12.70;6.60;;;;;;;5.52;100.00;101957.94;5280753;28;20039;-69
2022/11/27 09:22:23;;;;;;;13.67;7.40;;;;;;;5.61;100.00;101956.88;5286464;28;20058;-69
2022/11/27 09:24:54;;;;;;;13.97;7.93;;;;;;;5.54;100.00;101951.81;5287048;28;20020;-70
2022/11/27 09:27:26;;;;;;;13.80;7.53;;;;;;;5.60;100.00;101949.97;5283153;28;20024;-70
2022/11/27 09:29:57;;;;;;;16.17;7.03;;;;;;;5.61;100.00;101952.56;5287256;28;20035;-70
2022/11/27 09:32:28;;;;;;;13.17;7.67;;;;;;;5.64;100.00;101944.69;5293249;28;20030;-69
2022/11/27 09:35:00;;;;;;;15.13;7.20;;;;;;;5.60;100.00;101953.44;5294237;28;20027;-69
2022/11/27 09:37:31;;;;;;;9.50;6.50;;;;;;;5.65;100.00;101956.81;5287412;28;20024;-69
2022/11/27 09:40:03;;;;;;;13.57;6.90;;;;;;;5.66;100.00;101947.25;5294398;28;20039;-69
2022/11/27 09:42:41;;;;;;;17.50;8.07;;;;;;;5.62;100.00;101950.81;5285366;28;20119;-69
2022/11/27 09:45:16;;;;;;;16.03;7.93;;;;;;;5.64;100.00;101954.22;5288601;28;20660;-69
2022/11/27 09:47:52;;;;;;;14.05;8.15;;;;;;;5.59;100.00;101943.06;5286803;28;20046;-68
2022/11/27 09:50:28;;;;;;;15.30;7.93;;;;;;;5.61;100.00;101941.28;5285865;28;20505;-70
2022/11/27 09:53:22;;;;;;;20.57;7.97;;;;;;;5.71;100.00;101937.59;5291705;28;20028;-69
2022/11/27 09:55:55;;;;;;;15.33;8.13;;;;;;;5.61;100.00;101923.97;5290692;28;20089;-70
2022/11/27 09:58:36;;;;;;;13.27;7.67;;;;;;;5.74;100.00;101940.13;5294185;28;20028;-69
2022/11/27 10:01:22;;;;;;;15.27;9.00;;;;;;;5.69;100.00;101926.38;5294259;28;20035;-70
2022/11/27 10:03:54;;;;;;;10.10;7.20;;;;;;;5.68;100.00;101927.28;5294646;28;20055;-69
2022/11/27 10:06:34;;;;;;;13.90;8.37;;;;;;;5.73;100.00;101915.03;5294376;28;20028;-69
2022/11/27 10:09:13;;;;;;;16.87;8.10;;;;;;;5.80;100.00;101920.94;5293217;28;20204;-68
2022/11/27 10:11:55;;;;;;;12.57;7.80;;;;;;;5.75;100.00;101917.59;5296434;28;20039;-70
2022/11/27 10:14:29;;;;;;;11.90;7.27;;;;;;;5.80;100.00;101911.41;5296624;28;20036;-70
2022/11/27 10:17:27;;;;;;;13.38;8.85;;;;;;;5.77;100.00;101902.81;5290646;28;20059;-69
2022/11/27 10:20:08;;;;;;;14.23;8.30;;;;;;;5.83;100.00;101899.25;5280995;28;20047;-69
2022/11/27 10:22:56;;;;;;;13.57;7.77;;;;;;;5.94;100.00;101892.03;5285911;28;20032;-69
2022/11/27 10:25:35;;;;;;;13.73;7.50;;;;;;;5.77;100.00;101885.50;5297149;28;20024;-68
2022/11/27 10:28:09;;;;;;;14.07;7.73;;;;;;;5.85;100.00;101887.06;5297643;28;20119;-69
2022/11/27 10:31:03;;;;;;;13.40;7.63;;;;;;;5.92;100.00;101889.47;5297133;28;20047;-69
2022/11/27 10:33:41;;;;;;;12.13;7.93;;;;;;;5.95;100.00;101885.97;5296606;28;20628;-70
2022/11/27 10:36:33;;;;;;;13.10;8.97;;;;;;;6.02;100.00;101884.91;5297070;28;20035;-69
2022/11/27 10:39:11;;;;;;;15.83;8.17;;;;;;;5.93;100.00;101872.13;5294315;28;20070;-69
2022/11/27 10:41:51;;;;;;;18.23;8.17;;;;;;;5.94;100.00;101871.22;5294157;28;20024;-69
2022/11/27 10:44:34;;;;;;;12.57;8.47;;;;;;;6.02;100.00;101869.31;5291732;28;20020;-69
2022/11/27 10:47:09;;;;;;;13.47;8.00;;;;;;;5.98;100.00;101859.88;5295363;28;20024;-69
2022/11/27 10:49:42;;;;;;;14.80;7.67;;;;;;;6.10;100.00;101865.69;5297093;28;20030;-70
2022/11/27 10:52:17;;;;;;;16.83;8.40;;;;;;;6.03;100.00;101860.63;5295795;28;20016;-69
2022/11/27 10:55:03;;;;;;;13.98;7.20;;;;;;;6.13;100.00;101855.22;5295963;28;20794;-70
2022/11/27 10:57:42;;;;;;;12.67;7.60;;;;;;;6.09;100.00;101859.63;5292623;28;20033;-69
2022/11/27 11:00:24;;;;;;;12.83;8.27;;;;;;;6.15;100.00;101849.09;5295224;28;20506;-70
2022/11/27 11:03:04;;;;;;;13.03;8.13;;;;;;;6.14;100.00;101847.38;5292815;28;20053;-69
2022/11/27 11:05:36;;;;;;;13.83;7.87;;;;;;;6.20;100.00;101846.38;5296706;28;20032;-68
2022/11/27 11:08:19;;;;;;;14.67;7.20;;;;;;;6.11;100.00;101828.41;5297250;28;20517;-67
2022/11/27 11:11:01;;;;;;;12.17;8.03;;;;;;;6.17;100.00;101834.31;5293734;28;20072;-68
2022/11/27 11:13:39;;;;;;;10.97;7.20;;;;;;;6.16;100.00;101832.59;5295572;28;20398;-68
2022/11/27 11:16:10;;;;;;;19.13;10.53;;;;;;;6.17;100.00;101821.31;5290018;28;20712;-68
2022/11/27 11:18:55;;;;;;;23.80;15.77;;;;;;;6.14;100.00;101807.50;5297512;28;20024;-68
2022/11/27 11:21:34;;;;;;;14.90;9.27;;;;;;;6.26;100.00;101809.81;5296547;28;20758;-69
2022/11/27 11:24:13;;;;;;;12.10;8.60;;;;;;;6.23;100.00;101809.88;5295329;28;20024;-70
2022/11/27 11:27:10;;;;;;;18.03;13.57;;;;;;;6.25;100.00;101795.06;5295548;28;20034;-68
2022/11/27 11:29:45;;;;;;;14.40;9.17;;;;;;;6.22;100.00;101796.91;5291460;28;20413;-68
2022/11/27 11:32:19;;;;;;;12.25;7.80;;;;;;;6.29;100.00;101795.84;5297052;28;20036;-69
2022/11/27 11:35:07;;;;;;;13.60;9.13;;;;;;;6.31;100.00;101793.22;5296999;28;20794;-72
2022/11/27 11:37:44;;;;;;;12.50;7.20;;;;;;;6.27;100.00;101771.63;5296398;28;20111;-68
2022/11/27 11:40:25;;;;;;;11.67;7.10;;;;;;;6.31;100.00;101769.78;5288135;28;20237;-68
2022/11/27 11:43:03;;;;;;;11.60;7.73;;;;;;;6.25;100.00;101766.47;5292587;28;20389;-68
2022/11/27 11:45:44;;;;;;;12.97;8.00;;;;;;;6.31;100.00;101767.19;5292938;28;20024;-69
2022/11/27 11:48:26;;;;;;;20.73;8.83;;;;;;;6.33;100.00;101768.88;5286895;28;20028;-69
2022/11/27 11:51:10;;;;;;;14.37;10.67;;;;;;;6.27;100.00;101754.25;5281640;28;20027;-69
2022/11/27 11:54:01;;;;;;;26.10;18.23;;;;;;;6.23;100.00;101747.44;5289798;28;20031;-69